Terminal Aerodrome Forecast
Issued by NWS

Home | Current Version | Previous Version | Text Only | Print | Product List | Glossary On
Versions: 1 2 3 4 5 6 7 8 9 10 11 12 13 14 15 16 17
000
FTUS42 TJSJ 300658 AAA
TAFNCM
TAF AMD
TNCM 300658Z 3007/3106 08008KT P6SM VCSH SCT020
      TEMPO 3007/3009 VRB12KT 5SM -SHRA BKN020
     FM301530 08012KT P6SM FEW022=

USA.gov is the U.S. government's official web portal to all federal, state and local government web resources and services.